Time;durP1;ratioP1;P1;durP2;ratioP2;P2;SDS_P1;SDS_P2;PMS_P1;PMS_P2;Temp;Humidity;BMP_temperature;BMP_pressure;BME280_temperature;BME280_humidity;BME280_pressure;Samples;Min_cycle;Max_cycle;Signal;HPM_P1;HPM_P2
2020/12/25 00:01:21;;;;;;;2.20;1.30;;;6.00;99.90;;;;;;4941436;29;20175;-90
2020/12/25 00:03:47;;;;;;;6.30;2.33;;;6.10;99.90;;;;;;4957548;29;20216;-91
2020/12/25 00:06:13;;;;;;;2.37;1.40;;;6.00;99.90;;;;;;4957922;29;20185;-91
2020/12/25 00:08:38;;;;;;;3.73;0.80;;;6.00;99.90;;;;;;4941350;29;20168;-90
2020/12/25 00:11:04;;;;;;;8.77;1.63;;;5.90;99.90;;;;;;4957378;29;20272;-91
2020/12/25 00:13:30;;;;;;;3.10;1.60;;;6.00;99.90;;;;;;4957179;29;20180;-93
2020/12/25 00:15:57;;;;;;;2.73;1.40;;;5.90;99.90;;;;;;4957531;29;20168;-90
2020/12/25 00:18:23;;;;;;;9.60;3.87;;;5.90;99.90;;;;;;4957540;29;20168;-92
2020/12/25 00:20:52;;;;;;;11.63;3.37;;;5.90;99.90;;;;;;4955457;29;20674;-91
2020/12/25 00:23:18;;;;;;;5.07;2.10;;;6.00;99.90;;;;;;4941291;29;20663;-90
2020/12/25 00:25:44;;;;;;;2.27;1.10;;;5.90;99.90;;;;;;4941021;29;20176;-91
2020/12/25 00:28:10;;;;;;;2.50;1.10;;;5.90;99.90;;;;;;4941335;29;20175;-91
2020/12/25 00:30:36;;;;;;;4.93;1.00;;;6.00;99.90;;;;;;4940954;29;20176;-90
2020/12/25 00:33:02;;;;;;;2.97;1.20;;;6.00;99.90;;;;;;4941048;29;20168;-90
2020/12/25 00:35:31;;;;;;;2.60;0.87;;;5.90;99.90;;;;;;4941026;29;20195;-90
2020/12/25 00:37:58;;;;;;;3.90;2.13;;;5.90;99.90;;;;;;4940358;29;20180;-91
2020/12/25 00:40:24;;;;;;;7.23;3.90;;;5.90;99.90;;;;;;4940882;29;20176;-91
2020/12/25 00:42:50;;;;;;;7.27;2.70;;;5.80;99.90;;;;;;4940994;29;20171;-90
2020/12/25 00:45:15;;;;;;;4.97;1.77;;;5.80;99.90;;;;;;4940751;29;20207;-91
2020/12/25 00:47:41;;;;;;;6.50;1.80;;;5.70;99.90;;;;;;4940773;29;20226;-92
2020/12/25 00:50:07;;;;;;;5.70;1.50;;;5.80;99.90;;;;;;4940515;29;20176;-92
2020/12/25 00:52:32;;;;;;;5.43;0.93;;;5.90;99.90;;;;;;4956707;29;20168;-91
2020/12/25 00:54:58;;;;;;;6.30;1.20;;;6.00;99.90;;;;;;4956725;29;20263;-92
2020/12/25 00:57:24;;;;;;;4.07;1.53;;;5.90;99.90;;;;;;4940567;29;20196;-91
2020/12/25 00:59:49;;;;;;;2.30;1.50;;;5.80;99.90;;;;;;4956336;29;20176;-92
2020/12/25 01:02:18;;;;;;;6.20;1.13;;;5.80;99.90;;;;;;4940648;29;20168;-91
2020/12/25 01:04:43;;;;;;;5.30;1.30;;;5.80;99.90;;;;;;4956451;29;20234;-94
2020/12/25 01:07:09;;;;;;;7.57;1.97;;;5.80;99.90;;;;;;4957718;29;20172;-92
2020/12/25 01:09:35;;;;;;;1.27;0.67;;;5.70;99.90;;;;;;4940662;29;20640;-92
2020/12/25 01:12:02;;;;;;;6.17;1.17;;;5.70;99.90;;;;;;4958040;29;20215;-93
2020/12/25 01:14:29;;;;;;;2.40;1.10;;;5.70;99.90;;;;;;4959073;29;20175;-92
2020/12/25 01:16:56;;;;;;;6.63;1.30;;;5.60;99.90;;;;;;4940706;29;20478;-93
2020/12/25 01:19:25;;;;;;;4.93;1.37;;;5.80;99.90;;;;;;4943040;29;20176;-92
2020/12/25 01:21:52;;;;;;;5.90;1.30;;;5.70;99.90;;;;;;4941884;29;20164;-93
2020/12/25 01:24:17;;;;;;;3.70;1.20;;;5.60;99.90;;;;;;4940068;29;20689;-94
2020/12/25 01:26:43;;;;;;;2.50;1.10;;;5.50;99.90;;;;;;4957310;29;20168;-93
2020/12/25 01:29:09;;;;;;;2.60;1.27;;;5.50;99.90;;;;;;4956664;29;20176;-91
2020/12/25 01:31:35;;;;;;;1.40;1.27;;;5.50;99.90;;;;;;4924543;29;20699;-92
2020/12/25 01:34:01;;;;;;;6.03;1.57;;;5.50;99.90;;;;;;4936699;29;20238;-93
2020/12/25 01:36:27;;;;;;;8.47;1.67;;;5.50;99.90;;;;;;4936505;29;20271;-92
2020/12/25 01:38:53;;;;;;;3.87;1.23;;;5.40;99.90;;;;;;4920801;29;20248;-93
2020/12/25 01:41:18;;;;;;;1.83;1.17;;;5.50;99.90;;;;;;4936605;29;20212;-93
2020/12/25 01:43:44;;;;;;;4.30;1.27;;;5.50;99.90;;;;;;4936395;29;20208;-93
2020/12/25 01:46:11;;;;;;;8.50;1.80;;;5.50;99.90;;;;;;4936760;29;20262;-93
2020/12/25 01:48:37;;;;;;;6.47;1.40;;;5.50;99.90;;;;;;4920525;29;20228;-94
2020/12/25 01:51:04;;;;;;;3.07;1.33;;;5.40;99.90;;;;;;4938663;29;20228;-93
2020/12/25 01:53:30;;;;;;;7.60;1.73;;;5.40;99.90;;;;;;4940542;29;20196;-94
2020/12/25 01:56:00;;;;;;;4.37;1.40;;;5.40;99.90;;;;;;4940954;29;20203;-92
2020/12/25 01:58:28;;;;;;;5.73;1.60;;;5.40;99.90;;;;;;4941263;29;20218;-93
2020/12/25 02:00:57;;;;;;;6.80;1.23;;;5.40;99.90;;;;;;4939847;29;20168;-92
2020/12/25 02:03:23;;;;;;;8.63;1.10;;;5.40;99.90;;;;;;4956429;29;20164;-93
2020/12/25 02:05:48;;;;;;;5.30;1.40;;;5.40;99.90;;;;;;4955637;29;20171;-94
2020/12/25 02:08:15;;;;;;;5.17;1.40;;;5.50;99.90;;;;;;4955764;29;20226;-93
2020/12/25 02:10:42;;;;;;;7.70;1.53;;;5.50;99.90;;;;;;4939780;29;20195;-93
2020/12/25 02:13:09;;;;;;;4.33;1.33;;;5.60;99.90;;;;;;4956515;29;20172;-93
2020/12/25 02:15:37;;;;;;;11.97;2.03;;;5.60;99.90;;;;;;4939717;29;20172;-92
2020/12/25 02:18:04;;;;;;;5.37;1.60;;;5.60;99.90;;;;;;4939700;29;20175;-92
2020/12/25 02:20:30;;;;;;;12.17;1.93;;;5.60;99.90;;;;;;4956290;29;20182;-93
2020/12/25 02:22:56;;;;;;;6.57;1.40;;;5.60;99.90;;;;;;4939463;29;20271;-93
2020/12/25 02:25:21;;;;;;;6.10;1.33;;;5.60;99.90;;;;;;4956328;29;20203;-92
2020/12/25 02:27:49;;;;;;;4.13;1.17;;;5.70;99.90;;;;;;4956773;29;20226;-93
2020/12/25 02:30:15;;;;;;;8.50;1.60;;;5.70;99.90;;;;;;4939298;29;20317;-92
2020/12/25 02:32:41;;;;;;;4.10;1.30;;;5.70;99.90;;;;;;4956327;29;20655;-92
2020/12/25 02:35:07;;;;;;;5.13;1.40;;;5.70;99.90;;;;;;4939331;29;20314;-93
2020/12/25 02:37:33;;;;;;;6.73;1.50;;;5.70;99.90;;;;;;4956136;29;20175;-92
2020/12/25 02:39:59;;;;;;;3.97;1.60;;;5.80;99.90;;;;;;4939287;29;20179;-90
2020/12/25 02:42:28;;;;;;;3.60;1.27;;;5.80;99.90;;;;;;4939140;29;20172;-92
2020/12/25 02:44:53;;;;;;;5.10;1.33;;;5.90;99.90;;;;;;4938907;29;20212;-93
2020/12/25 02:47:19;;;;;;;4.77;1.40;;;5.80;99.90;;;;;;4939228;28;20307;-93
2020/12/25 02:49:45;;;;;;;4.67;1.67;;;5.70;99.90;;;;;;4958188;29;20180;-91
2020/12/25 02:52:10;;;;;;;5.73;2.03;;;5.70;99.90;;;;;;4939883;29;20249;-91
2020/12/25 02:54:36;;;;;;;8.20;1.70;;;5.70;99.90;;;;;;4956196;29;20199;-91
2020/12/25 02:57:01;;;;;;;6.77;1.40;;;5.80;99.90;;;;;;4955052;29;20171;-91
2020/12/25 02:59:27;;;;;;;4.07;1.47;;;5.80;99.90;;;;;;4955627;29;20509;-90
2020/12/25 03:01:53;;;;;;;5.20;2.00;;;5.80;99.90;;;;;;4956695;28;20198;-92
2020/12/25 03:04:19;;;;;;;6.87;1.80;;;5.90;99.90;;;;;;4958576;29;20204;-90
2020/12/25 03:06:45;;;;;;;6.10;1.53;;;5.90;99.90;;;;;;4942159;29;20184;-91
2020/12/25 03:09:12;;;;;;;6.80;1.83;;;5.90;99.90;;;;;;4942401;29;20315;-92
2020/12/25 03:11:37;;;;;;;4.63;1.30;;;5.90;99.90;;;;;;4942163;29;20187;-91
2020/12/25 03:14:06;;;;;;;3.23;1.47;;;5.90;99.90;;;;;;4943520;29;20203;-90
2020/12/25 03:16:32;;;;;;;5.50;1.60;;;5.90;99.90;;;;;;4943228;29;20226;-93
2020/12/25 03:19:00;;;;;;;6.40;1.53;;;5.80;99.90;;;;;;4942821;29;20172;-91
2020/12/25 03:21:26;;;;;;;5.93;1.40;;;5.80;99.90;;;;;;4942532;29;20541;-91
2020/12/25 03:23:54;;;;;;;5.40;1.50;;;5.70;99.90;;;;;;4942708;29;20204;-92
2020/12/25 03:26:20;;;;;;;4.30;1.23;;;5.70;99.90;;;;;;4942512;29;20168;-90
2020/12/25 03:28:46;;;;;;;4.93;1.33;;;5.60;99.90;;;;;;4942264;29;20510;-92
2020/12/25 03:31:12;;;;;;;5.10;1.70;;;5.60;99.90;;;;;;4942256;29;20180;-91
2020/12/25 03:33:37;;;;;;;5.17;1.67;;;5.60;99.90;;;;;;4942292;29;20176;-92
2020/12/25 03:36:03;;;;;;;3.83;1.40;;;5.50;99.90;;;;;;4942200;29;20182;-94
2020/12/25 03:38:29;;;;;;;4.03;1.53;;;5.50;99.90;;;;;;4941899;29;20168;-93
2020/12/25 03:40:54;;;;;;;5.07;1.70;;;5.50;99.90;;;;;;4942167;29;20627;-93
2020/12/25 03:43:20;;;;;;;4.70;1.43;;;5.50;99.90;;;;;;4941977;29;20168;-92
2020/12/25 03:45:45;;;;;;;8.47;1.33;;;5.50;99.90;;;;;;4958907;29;20214;-93
2020/12/25 03:48:11;;;;;;;4.47;1.70;;;5.50;99.90;;;;;;4941859;29;20306;-92
2020/12/25 03:50:37;;;;;;;7.87;1.93;;;5.40;99.90;;;;;;4958871;29;20180;-92
2020/12/25 03:53:03;;;;;;;2.77;1.33;;;5.40;99.90;;;;;;4941879;29;20179;-91
2020/12/25 03:55:28;;;;;;;2.90;1.60;;;5.50;99.90;;;;;;4959030;29;20169;-91
2020/12/25 03:57:54;;;;;;;3.70;1.30;;;5.40;99.90;;;;;;4941979;29;20539;-92
2020/12/25 04:00:20;;;;;;;3.80;1.40;;;5.50;99.90;;;;;;4941549;29;20224;-92
2020/12/25 04:02:45;;;;;;;7.07;1.80;;;5.50;99.90;;;;;;4941750;29;20170;-91
2020/12/25 04:05:11;;;;;;;6.17;1.67;;;5.60;99.90;;;;;;4941366;29;20196;-93
2020/12/25 04:07:37;;;;;;;4.67;1.70;;;5.70;99.90;;;;;;4941443;29;20176;-92
2020/12/25 04:10:05;;;;;;;4.30;1.60;;;5.70;99.90;;;;;;4927800;29;20177;-93
2020/12/25 04:12:31;;;;;;;2.70;1.17;;;5.70;99.90;;;;;;4921761;29;20169;-92
2020/12/25 04:14:56;;;;;;;7.23;1.40;;;5.60;99.90;;;;;;4922192;29;20183;-92
2020/12/25 04:17:22;;;;;;;5.60;1.57;;;5.60;99.90;;;;;;4922317;29;20169;-93
2020/12/25 04:19:48;;;;;;;6.37;1.43;;;5.60;99.90;;;;;;4922486;29;20238;-93
2020/12/25 04:22:16;;;;;;;4.10;1.40;;;5.70;99.90;;;;;;4922100;29;20169;-92
2020/12/25 04:24:43;;;;;;;4.50;1.70;;;5.60;99.90;;;;;;4922090;29;20235;-91
2020/12/25 04:27:09;;;;;;;4.97;1.40;;;5.60;99.90;;;;;;4922245;29;20257;-92
2020/12/25 04:29:35;;;;;;;5.97;1.50;;;5.60;99.90;;;;;;4922265;29;20248;-93
2020/12/25 04:32:00;;;;;;;7.27;1.50;;;5.70;99.90;;;;;;4922032;29;20173;-94
2020/12/25 04:34:26;;;;;;;6.83;1.60;;;5.80;99.90;;;;;;4921963;29;20173;-91
2020/12/25 04:36:51;;;;;;;7.67;1.40;;;5.70;99.90;;;;;;4938732;29;20201;-94
2020/12/25 04:39:17;;;;;;;3.00;1.60;;;5.70;99.90;;;;;;4929449;29;20636;-91
2020/12/25 04:41:43;;;;;;;2.43;1.43;;;5.70;99.90;;;;;;4956966;29;20168;-93
2020/12/25 04:44:09;;;;;;;3.27;1.50;;;5.60;99.90;;;;;;4956628;28;20239;-91
2020/12/25 04:46:34;;;;;;;5.23;1.50;;;5.50;99.90;;;;;;4956783;29;20168;-92
2020/12/25 04:49:01;;;;;;;4.37;1.53;;;5.60;99.90;;;;;;4956473;29;20219;-92
2020/12/25 04:51:29;;;;;;;4.43;1.73;;;5.60;99.90;;;;;;4956687;29;20171;-93
2020/12/25 04:53:55;;;;;;;7.53;1.93;;;5.50;99.90;;;;;;4956594;29;20260;-93
2020/12/25 04:56:23;;;;;;;5.33;1.67;;;5.60;99.90;;;;;;4956733;29;20168;-92
2020/12/25 04:58:49;;;;;;;9.20;1.50;;;5.50;99.90;;;;;;4956846;29;20164;-93
2020/12/25 05:01:15;;;;;;;3.37;1.60;;;5.50;99.90;;;;;;4956940;29;20168;-91
2020/12/25 05:03:42;;;;;;;4.43;1.53;;;5.50;99.90;;;;;;4956465;29;20702;-92
2020/12/25 05:06:18;;;;;;;8.87;1.77;;;5.50;99.90;;;;;;4956518;29;20172;-92
2020/12/25 05:08:49;;;;;;;3.57;1.50;;;5.50;99.90;;;;;;4955999;29;20155;-92
2020/12/25 05:11:16;;;;;;;6.87;1.30;;;5.40;99.90;;;;;;4956507;29;20616;-92
2020/12/25 05:13:53;;;;;;;3.37;1.23;;;5.40;99.90;;;;;;4956276;29;20199;-92
2020/12/25 05:16:21;;;;;;;4.77;1.87;;;5.40;99.90;;;;;;4956231;29;20167;-91
2020/12/25 05:18:49;;;;;;;4.60;1.33;;;5.40;99.90;;;;;;4956201;29;20175;-92
2020/12/25 05:21:20;;;;;;;3.50;1.27;;;5.40;99.90;;;;;;4957338;29;20164;-92
2020/12/25 05:23:47;;;;;;;10.50;1.53;;;5.40;99.90;;;;;;4955781;28;20203;-93
2020/12/25 05:26:14;;;;;;;6.93;1.70;;;5.40;99.90;;;;;;4939999;29;20242;-92
2020/12/25 05:28:48;;;;;;;6.20;2.00;;;5.40;99.90;;;;;;4957201;29;20209;-91
2020/12/25 05:31:15;;;;;;;4.83;1.40;;;5.50;99.90;;;;;;4957229;29;20172;-91
2020/12/25 05:33:41;;;;;;;3.70;1.60;;;5.60;99.90;;;;;;4940066;29;20598;-92
2020/12/25 05:36:09;;;;;;;4.57;1.93;;;5.60;99.90;;;;;;4955129;29;20211;-93
2020/12/25 05:38:40;;;;;;;7.30;3.50;;;5.60;99.90;;;;;;4954537;29;20227;-92
2020/12/25 05:41:07;;;;;;;4.63;2.13;;;5.60;99.90;;;;;;4956597;29;20231;-91
2020/12/25 05:43:34;;;;;;;5.17;1.80;;;5.60;99.90;;;;;;4939753;29;20172;-91
2020/12/25 05:46:12;;;;;;;2.80;1.50;;;5.50;99.90;;;;;;4939576;29;20223;-91
2020/12/25 05:48:37;;;;;;;8.57;1.50;;;5.50;99.90;;;;;;4922353;29;20575;-94
2020/12/25 05:51:09;;;;;;;3.13;1.40;;;5.50;99.90;;;;;;4920656;29;20164;-92
2020/12/25 05:53:42;;;;;;;4.77;1.60;;;5.50;99.90;;;;;;4918173;29;20179;-91
2020/12/25 05:56:15;;;;;;;4.77;1.57;;;5.50;99.90;;;;;;4937445;29;20156;-91
2020/12/25 05:58:44;;;;;;;2.53;1.60;;;5.40;99.90;;;;;;4920570;29;20192;-91
2020/12/25 06:01:10;;;;;;;4.30;1.50;;;5.40;99.90;;;;;;4920874;29;20176;-93
2020/12/25 06:03:37;;;;;;;5.70;1.43;;;5.40;99.90;;;;;;4920586;29;20164;-92
2020/12/25 06:06:11;;;;;;;2.33;1.10;;;5.50;99.90;;;;;;4920410;29;20307;-92
2020/12/25 06:08:53;;;;;;;3.33;1.30;;;5.50;99.90;;;;;;4920724;29;20165;-91
2020/12/25 06:11:27;;;;;;;5.53;1.17;;;5.40;99.90;;;;;;4920618;29;20165;-92
2020/12/25 06:13:53;;;;;;;4.07;1.43;;;5.50;99.90;;;;;;4920432;29;20163;-92
2020/12/25 06:16:21;;;;;;;1.63;0.90;;;5.40;99.90;;;;;;4921454;29;20161;-92
2020/12/25 06:19:05;;;;;;;3.57;1.20;;;5.50;99.90;;;;;;4956315;29;20168;-90
2020/12/25 06:21:59;;;;;;;3.87;0.90;;;5.50;99.90;;;;;;4939462;29;20163;-91
2020/12/25 06:24:37;;;;;;;5.03;1.43;;;5.50;99.90;;;;;;4925402;29;20675;-92
2020/12/25 06:27:04;;;;;;;3.90;0.83;;;5.40;99.90;;;;;;4939864;29;20173;-91
2020/12/25 06:29:30;;;;;;;2.67;1.03;;;5.50;99.90;;;;;;4940849;29;20175;-91
2020/12/25 06:32:00;;;;;;;4.97;1.10;;;5.60;99.90;;;;;;4940169;29;20168;-92
2020/12/25 06:34:49;;;;;;;4.73;1.10;;;5.60;99.90;;;;;;4939524;29;20250;-91
2020/12/25 06:37:17;;;;;;;3.40;1.00;;;5.60;99.90;;;;;;4959090;28;20164;-91
2020/12/25 06:39:56;;;;;;;5.70;1.13;;;5.60;99.90;;;;;;4942922;29;20175;-92
2020/12/25 06:42:28;;;;;;;3.93;1.40;;;5.60;99.90;;;;;;4959194;29;20163;-92
2020/12/25 06:44:56;;;;;;;3.57;1.00;;;5.60;99.90;;;;;;4958816;28;20238;-92
2020/12/25 06:47:32;;;;;;;4.80;1.20;;;5.60;99.90;;;;;;4958885;29;20215;-92
2020/12/25 06:49:58;;;;;;;5.60;1.53;;;5.50;99.90;;;;;;4943165;29;20180;-91
2020/12/25 06:52:29;;;;;;;6.50;1.33;;;5.50;99.90;;;;;;4958856;29;20195;-91
2020/12/25 06:54:57;;;;;;;6.53;1.80;;;5.50;99.90;;;;;;4943764;29;20178;-92
2020/12/25 06:57:27;;;;;;;7.37;1.70;;;5.60;99.90;;;;;;4943837;29;20229;-91
2020/12/25 06:59:53;;;;;;;11.40;1.47;;;5.70;99.90;;;;;;4959146;29;20203;-92
2020/12/25 07:02:23;;;;;;;3.53;1.25;;;5.60;99.90;;;;;;4942478;29;20419;-91
2020/12/25 07:04:50;;;;;;;3.37;1.10;;;5.60;99.90;;;;;;4959890;29;20208;-90
2020/12/25 07:07:20;;;;;;;4.93;1.10;;;5.50;99.90;;;;;;4943168;29;20168;-91
2020/12/25 07:09:49;;;;;;;8.03;1.67;;;5.50;99.90;;;;;;4942093;29;20180;-91
2020/12/25 07:12:23;;;;;;;2.63;1.00;;;5.60;99.90;;;;;;4942639;29;20172;-91
2020/12/25 07:14:50;;;;;;;6.25;1.70;;;5.50;99.90;;;;;;4941718;29;20435;-90
2020/12/25 07:17:16;;;;;;;5.80;1.30;;;5.60;99.90;;;;;;4942342;29;20327;-91
2020/12/25 07:19:45;;;;;;;4.83;1.17;;;5.40;99.90;;;;;;4942505;29;20199;-91
2020/12/25 07:22:13;;;;;;;5.10;1.20;;;5.40;99.90;;;;;;4959858;29;20168;-91
2020/12/25 07:24:40;;;;;;;5.60;1.10;;;5.40;99.90;;;;;;4942323;29;20196;-92
2020/12/25 07:27:07;;;;;;;3.90;1.00;;;5.30;99.90;;;;;;4942168;29;20160;-91
2020/12/25 07:29:35;;;;;;;9.27;1.40;;;5.40;99.90;;;;;;4942410;29;20238;-92
2020/12/25 07:32:01;;;;;;;3.00;1.10;;;5.40;99.90;;;;;;4942292;29;20198;-92
2020/12/25 07:34:27;;;;;;;5.97;1.17;;;5.50;99.90;;;;;;4942249;29;20172;-92
2020/12/25 07:36:54;;;;;;;4.73;1.20;;;5.50;99.90;;;;;;4942420;29;20431;-93
2020/12/25 07:39:21;;;;;;;4.30;1.00;;;5.60;99.90;;;;;;4942612;29;20172;-93
2020/12/25 07:41:47;;;;;;;5.77;1.40;;;5.50;99.90;;;;;;4942655;29;20651;-93
2020/12/25 07:44:13;;;;;;;2.80;1.10;;;5.50;99.90;;;;;;4942090;29;20248;-93
2020/12/25 07:46:39;;;;;;;7.03;1.20;;;5.40;99.90;;;;;;4950881;29;20176;-94
2020/12/25 07:49:07;;;;;;;3.50;1.20;;;5.40;99.90;;;;;;4959119;29;20227;-92
2020/12/25 07:51:33;;;;;;;4.27;1.30;;;5.40;99.90;;;;;;4960261;29;20178;-92
2020/12/25 07:54:00;;;;;;;6.77;1.20;;;5.40;99.90;;;;;;4942949;29;20179;-93
2020/12/25 07:56:28;;;;;;;3.53;1.33;;;5.40;99.90;;;;;;4941807;29;20179;-92
2020/12/25 07:58:54;;;;;;;6.50;1.70;;;5.40;99.90;;;;;;4941839;29;20203;-93
2020/12/25 08:01:21;;;;;;;4.53;1.30;;;5.40;99.90;;;;;;4941943;29;20176;-92
2020/12/25 08:03:48;;;;;;;5.67;1.63;;;5.30;99.90;;;;;;4941701;29;20278;-91
2020/12/25 08:06:15;;;;;;;7.43;1.60;;;5.20;99.90;;;;;;4941281;29;20214;-92
2020/12/25 08:08:48;;;;;;;5.30;1.97;;;5.20;99.90;;;;;;4941651;29;20172;-92
2020/12/25 08:11:17;;;;;;;4.67;1.60;;;5.10;99.90;;;;;;4941623;29;20710;-92
2020/12/25 08:13:48;;;;;;;7.80;3.10;;;4.90;99.90;;;;;;4941129;29;20192;-94
2020/12/25 08:16:14;;;;;;;10.73;4.27;;;4.80;99.90;;;;;;4941487;29;20160;-92
2020/12/25 08:18:40;;;;;;;6.80;2.23;;;4.80;99.90;;;;;;4941408;29;20197;-92
2020/12/25 08:21:05;;;;;;;6.03;1.90;;;4.90;99.90;;;;;;4941420;29;20168;-92
2020/12/25 08:23:33;;;;;;;10.40;2.30;;;4.80;99.90;;;;;;4941224;29;20203;-93
2020/12/25 08:25:58;;;;;;;8.10;2.70;;;4.80;99.90;;;;;;4941284;29;20198;-93
2020/12/25 08:28:24;;;;;;;4.17;2.30;;;4.80;99.90;;;;;;4941501;29;20168;-95
2020/12/25 08:30:50;;;;;;;5.43;2.03;;;4.80;99.90;;;;;;4941398;29;20173;-93
2020/12/25 08:33:25;;;;;;;4.73;2.23;;;4.80;99.90;;;;;;4941154;29;20183;-92
2020/12/25 08:35:52;;;;;;;7.73;2.50;;;4.80;99.90;;;;;;4941167;29;20163;-93
2020/12/25 08:38:18;;;;;;;5.73;2.13;;;4.80;99.90;;;;;;4940943;29;20175;-95
2020/12/25 08:40:45;;;;;;;6.67;2.43;;;4.80;99.90;;;;;;4940766;29;20164;-94
2020/12/25 08:43:13;;;;;;;7.50;2.03;;;4.90;99.90;;;;;;4941180;29;20176;-93
2020/12/25 08:46:00;;;;;;;10.47;2.00;;;4.90;99.90;;;;;;4940071;29;20282;-93
2020/12/25 08:48:29;;;;;;;10.07;2.53;;;4.90;99.90;;;;;;4940238;29;20215;-93
2020/12/25 08:51:08;;;;;;;5.90;2.07;;;4.90;99.90;;;;;;4941084;29;20628;-94
2020/12/25 08:53:34;;;;;;;3.87;1.90;;;4.90;99.90;;;;;;4940748;29;20179;-92
2020/12/25 08:56:14;;;;;;;4.90;2.03;;;4.90;99.90;;;;;;4941444;29;20202;-92
2020/12/25 08:58:40;;;;;;;7.60;2.40;;;4.90;99.90;;;;;;4940806;29;20168;-94
2020/12/25 09:01:05;;;;;;;5.63;2.50;;;4.90;99.90;;;;;;4940907;29;20195;-92
2020/12/25 09:03:41;;;;;;;4.07;2.27;;;4.90;99.90;;;;;;4958405;29;20170;-92
2020/12/25 09:06:11;;;;;;;9.70;2.50;;;4.90;99.90;;;;;;4941115;29;20206;-94
2020/12/25 09:08:37;;;;;;;8.53;3.30;;;4.90;99.90;;;;;;4956898;29;20199;-92
2020/12/25 09:11:15;;;;;;;9.67;3.27;;;5.00;99.90;;;;;;4958300;29;20168;-93
2020/12/25 09:13:41;;;;;;;7.37;2.70;;;5.10;99.90;;;;;;4958118;29;20172;-93
2020/12/25 09:16:07;;;;;;;6.00;2.57;;;5.20;99.90;;;;;;4940587;29;20164;-91
2020/12/25 09:18:36;;;;;;;7.10;2.63;;;5.20;99.90;;;;;;4940595;29;20275;-91
2020/12/25 09:21:03;;;;;;;7.43;2.83;;;5.10;99.90;;;;;;4940949;29;20172;-92
2020/12/25 09:23:30;;;;;;;7.43;2.90;;;5.10;99.90;;;;;;4941313;29;20172;-93
2020/12/25 09:25:56;;;;;;;8.67;3.03;;;5.20;99.90;;;;;;4940836;29;20215;-93
2020/12/25 09:28:25;;;;;;;7.93;3.20;;;5.30;99.90;;;;;;4941075;29;20194;-92
2020/12/25 09:30:51;;;;;;;8.70;2.80;;;5.20;99.90;;;;;;4956368;29;20171;-92
2020/12/25 09:33:20;;;;;;;9.47;2.50;;;5.20;99.90;;;;;;4940319;29;20168;-94
2020/12/25 09:35:46;;;;;;;9.75;2.90;;;5.30;99.90;;;;;;4949803;29;20431;-93
2020/12/25 09:38:14;;;;;;;11.93;2.57;;;5.60;99.90;;;;;;4927997;29;20196;-93
2020/12/25 09:40:40;;;;;;;6.33;2.37;;;5.50;99.90;;;;;;4937200;29;20161;-92
2020/12/25 09:43:06;;;;;;;9.60;2.40;;;5.40;99.90;;;;;;4936666;29;20180;-93
2020/12/25 09:45:32;;;;;;;7.50;2.63;;;5.40;99.90;;;;;;4960283;23;20461;-93
2020/12/25 09:48:01;;;;;;;9.10;2.13;;;5.80;99.90;;;;;;4958880;28;20736;-92
2020/12/25 09:50:27;;;;;;;10.67;2.00;;;5.80;99.90;;;;;;4959089;28;20202;-95
2020/12/25 09:52:56;;;;;;;7.10;2.40;;;5.90;99.90;;;;;;4958988;28;20698;-94
2020/12/25 09:55:22;;;;;;;6.93;2.20;;;6.00;99.90;;;;;;4959405;28;20168;-93
2020/12/25 09:57:47;;;;;;;5.73;1.77;;;6.30;99.90;;;;;;4959330;28;20258;-92
2020/12/25 10:00:16;;;;;;;9.17;2.40;;;6.40;99.90;;;;;;4961301;28;20258;-91
2020/12/25 10:02:42;;;;;;;6.93;2.43;;;6.50;99.90;;;;;;4959891;28;20167;-92
2020/12/25 10:05:12;;;;;;;7.33;2.30;;;6.60;99.90;;;;;;4959205;28;20254;-93
2020/12/25 10:07:38;;;;;;;6.27;2.17;;;6.80;99.90;;;;;;4959490;28;20186;-92
2020/12/25 10:10:06;;;;;;;7.20;2.10;;;6.90;99.90;;;;;;4959406;28;20172;-92
2020/12/25 10:12:31;;;;;;;4.87;2.00;;;6.80;99.90;;;;;;4958632;28;20164;-94
2020/12/25 10:14:57;;;;;;;4.30;2.10;;;6.70;99.90;;;;;;4959122;28;20167;-93
2020/12/25 10:17:23;;;;;;;6.83;1.20;;;6.80;99.90;;;;;;4958814;28;20271;-93
2020/12/25 10:19:48;;;;;;;9.07;1.73;;;6.80;99.90;;;;;;4958940;28;20175;-95
2020/12/25 10:22:14;;;;;;;6.43;1.70;;;6.70;99.90;;;;;;4958723;28;20754;-92
2020/12/25 10:24:40;;;;;;;7.60;1.90;;;6.60;99.90;;;;;;4958237;28;20207;-94
2020/12/25 10:27:05;;;;;;;7.07;1.90;;;6.50;99.90;;;;;;4960321;28;20167;-94
2020/12/25 10:29:31;;;;;;;9.83;2.43;;;6.50;99.90;;;;;;4964028;28;20206;-92
2020/12/25 10:32:00;;;;;;;2.83;1.63;;;6.50;99.90;;;;;;4960740;28;20164;-94
2020/12/25 10:34:26;;;;;;;8.87;1.70;;;6.50;99.90;;;;;;4959222;28;20202;-94
2020/12/25 10:36:57;;;;;;;8.67;2.03;;;6.50;99.90;;;;;;4958518;28;20168;-94
2020/12/25 10:39:23;;;;;;;12.83;1.80;;;6.40;99.90;;;;;;4958470;28;20193;-94
2020/12/25 10:41:51;;;;;;;6.43;1.67;;;6.30;99.90;;;;;;4958498;28;20689;-94
2020/12/25 10:44:17;;;;;;;9.00;1.70;;;6.10;99.90;;;;;;4952324;29;20216;-93
2020/12/25 10:46:42;;;;;;;4.17;1.53;;;6.20;99.90;;;;;;4939391;29;20180;-93
2020/12/25 10:49:08;;;;;;;8.10;1.67;;;6.20;99.90;;;;;;4939413;29;20638;-92
2020/12/25 10:51:34;;;;;;;3.93;1.50;;;6.20;99.90;;;;;;4939171;29;20266;-94
2020/12/25 10:53:59;;;;;;;4.17;1.80;;;6.30;99.90;;;;;;4939139;29;20219;-93
2020/12/25 10:56:31;;;;;;;6.03;1.20;;;6.50;99.90;;;;;;4939395;29;20234;-94
2020/12/25 10:58:57;;;;;;;6.67;1.17;;;6.60;99.90;;;;;;4956207;29;20255;-93
2020/12/25 11:01:27;;;;;;;5.63;1.60;;;6.50;99.90;;;;;;4939282;29;20223;-93
2020/12/25 11:03:54;;;;;;;6.93;1.23;;;6.40;99.90;;;;;;4938889;29;20207;-93
2020/12/25 11:06:34;;;;;;;5.97;1.63;;;6.60;99.90;;;;;;4938951;29;20467;-92
2020/12/25 11:09:00;;;;;;;8.60;1.97;;;6.80;99.90;;;;;;4939618;29;20255;-94
2020/12/25 11:11:31;;;;;;;8.13;1.87;;;7.00;99.90;;;;;;4939077;29;20168;-92
2020/12/25 11:13:57;;;;;;;7.70;2.13;;;7.10;99.90;;;;;;4938828;29;20179;-93
2020/12/25 11:16:23;;;;;;;7.00;1.83;;;7.30;99.90;;;;;;4939479;29;20168;-94
2020/12/25 11:18:49;;;;;;;7.87;2.20;;;7.20;99.90;;;;;;4939022;29;20571;-92
2020/12/25 11:21:24;;;;;;;9.87;2.20;;;7.10;99.90;;;;;;4941192;29;20223;-94
2020/12/25 11:23:51;;;;;;;8.80;3.10;;;7.20;99.90;;;;;;4961963;29;20447;-94
2020/12/25 11:28:42;;;;;;;13.30;2.40;;;7.60;99.90;;;;;;5049052;23;20259;-95
2020/12/25 11:31:11;;;;;;;10.27;2.53;;;7.70;99.90;;;;;;4968993;28;20453;-95
2020/12/25 11:33:37;;;;;;;10.93;2.20;;;7.80;99.90;;;;;;4966249;28;20202;-95
2020/12/25 11:36:03;;;;;;;4.77;1.83;;;7.90;99.90;;;;;;4965918;28;20624;-94
2020/12/25 11:38:29;;;;;;;10.70;2.50;;;7.70;99.90;;;;;;4964903;28;20426;-95
2020/12/25 11:40:54;;;;;;;8.40;2.20;;;7.70;99.90;;;;;;4971042;28;20183;-94
2020/12/25 11:43:20;;;;;;;10.80;1.60;;;7.40;99.90;;;;;;4987592;28;20164;-92
2020/12/25 11:45:46;;;;;;;5.67;1.43;;;7.50;99.90;;;;;;4983740;28;20448;-94
2020/12/25 11:48:14;;;;;;;7.93;1.20;;;7.70;99.90;;;;;;4982779;28;20167;-93
2020/12/25 11:50:40;;;;;;;5.23;1.23;;;7.50;99.90;;;;;;4967705;28;20171;-94
2020/12/25 11:53:16;;;;;;;3.87;1.47;;;7.40;99.90;;;;;;4968886;28;20178;-95
2020/12/25 11:55:42;;;;;;;5.43;1.40;;;7.50;99.90;;;;;;4968702;28;20175;-94
2020/12/25 11:58:08;;;;;;;6.27;1.43;;;7.70;99.90;;;;;;4965958;28;20179;-95
2020/12/25 12:00:33;;;;;;;9.23;1.30;;;7.40;99.90;;;;;;4964676;28;20545;-92
2020/12/25 12:02:59;;;;;;;3.40;1.30;;;7.40;99.90;;;;;;4965277;28;20183;-94
2020/12/25 12:05:26;;;;;;;5.67;1.43;;;7.30;99.90;;;;;;4981501;28;20290;-95
2020/12/25 12:07:52;;;;;;;7.00;1.67;;;7.30;99.90;;;;;;4962304;28;20202;-94
2020/12/25 12:10:18;;;;;;;5.60;1.77;;;7.10;99.90;;;;;;4961447;28;20238;-93
2020/12/25 12:12:44;;;;;;;5.00;1.50;;;6.80;99.90;;;;;;4961313;28;20630;-92
2020/12/25 12:15:12;;;;;;;3.03;1.50;;;6.60;99.90;;;;;;4961165;28;20171;-94
2020/12/25 12:17:38;;;;;;;2.93;1.60;;;6.60;99.90;;;;;;4967076;28;20178;-95
2020/12/25 12:20:04;;;;;;;5.10;1.73;;;6.90;99.90;;;;;;4966711;28;20175;-95
2020/12/25 12:22:30;;;;;;;4.40;1.57;;;7.10;99.90;;;;;;4966106;28;20266;-95
2020/12/25 12:24:56;;;;;;;7.07;1.10;;;7.20;99.90;;;;;;4961714;28;20682;-93
2020/12/25 12:27:21;;;;;;;6.17;1.30;;;7.00;99.90;;;;;;4961056;28;20358;-94
2020/12/25 12:29:47;;;;;;;4.07;1.50;;;6.70;99.90;;;;;;4962023;28;20191;-94
2020/12/25 12:32:13;;;;;;;6.37;1.37;;;6.60;99.90;;;;;;4961725;28;20262;-93
2020/12/25 12:34:39;;;;;;;3.03;1.30;;;6.70;99.90;;;;;;4961139;28;20171;-94
2020/12/25 12:37:04;;;;;;;7.50;2.10;;;6.80;99.90;;;;;;4963979;28;20171;-94
2020/12/25 12:39:30;;;;;;;3.70;1.77;;;6.70;99.90;;;;;;4960743;28;20165;-91
2020/12/25 12:41:59;;;;;;;3.13;1.87;;;6.60;99.90;;;;;;4960274;28;20167;-92
2020/12/25 12:44:25;;;;;;;7.47;3.50;;;6.50;99.90;;;;;;4959787;28;20235;-93
2020/12/25 12:46:54;;;;;;;14.80;5.43;;;6.40;99.90;;;;;;4960432;28;20178;-93
2020/12/25 12:49:21;;;;;;;5.23;2.67;;;6.50;99.90;;;;;;4960111;28;20226;-93
2020/12/25 12:51:46;;;;;;;11.20;2.47;;;6.60;99.90;;;;;;4960542;28;20615;-93
2020/12/25 12:54:12;;;;;;;6.37;2.50;;;6.70;99.90;;;;;;4959727;28;20441;-93
2020/12/25 12:56:38;;;;;;;11.37;2.50;;;6.70;99.90;;;;;;4977192;28;20176;-92
2020/12/25 12:59:04;;;;;;;11.43;4.00;;;6.50;99.90;;;;;;4960249;28;20278;-92